^^

Meteo Aereoporti Centro-Italia

 

 
LIRZ - Perugia S.Egidio (208 m.)
Dati ricevuti: 19/05/2022 23:20
Sereno
Sereno
 Vento da NNW
Vento: NNW 7 km/h
TEMPERATURA: 16°C
P.to di Rugiada: 9°C
Umidità: 63%
Pressione: 1026 hPa
Nuvole: Sereno
Visibilità: 10 km
2022/05/19 21:20 LIRZ 192120Z AUTO 33004KT 250V010 9999 NCD 16/09 Q1026
 
LIPY - Ancona Falconara (12 m.)
Dati ricevuti: 19/05/2022 23:20
Sereno
Sereno
 Vento da S
Vento: S 4 km/h
TEMPERATURA: 15°C
P.to di Rugiada: 10°C
Umidità: 72%
Pressione: 1026 hPa
Nuvole: Sereno
Visibilità: 10 km
2022/05/19 21:20 LIPY 192120Z AUTO 19002KT 9999 NCD 15/10 Q1026
 
LIPR - Rimini Miramare (12 m.)
Dati ricevuti: 19/05/2022 23:20
Sereno
Sereno
 Vento da direzione variabile
Vento: direzione variabile 4 km/h
TEMPERATURA: 15°C
P.to di Rugiada: 9°C
Umidità: 68%
Pressione: 1026 hPa
Nuvole: Sereno
Visibilità: 10 km
2022/05/19 21:20 LIPR 192120Z AUTO VRB02KT 9999 NCD 15/09 Q1026
 
LIRF - Roma Fiumicino (2 m.)
Dati ricevuti: 19/05/2022 23:20
Sereno
Sereno
 Vento da W
Vento: W 6 km/h
TEMPERATURA: 19°C
P.to di Rugiada: 17°C
Umidità: 88%
Pressione: 1026 hPa
Condizioni generali: Sereno
Visibilità: oltre 10 km
2022/05/19 21:20 LIRF 192120Z 27003KT CAVOK 19/17 Q1026 NOSIG
 
LIRA - Roma Ciampino (129 m.)
Dati ricevuti: 19/05/2022 23:20
Sereno
Sereno
 Vento da SSW
Vento: SSW 7 km/h
TEMPERATURA: 19°C
P.to di Rugiada: 14°C
Umidità: 73%
Pressione: 1027 hPa
Condizioni generali: Sereno
Visibilità: oltre 10 km
2022/05/19 21:20 LIRA 192120Z 21004KT CAVOK 19/14 Q1027
 
LIRU - Roma Urbe (17 m.)
Dati ricevuti: 19/05/2022 19:50
Dati non aggiornati
Sereno
Sereno
 Vento da SW
Vento: SW 11 km/h
TEMPERATURA: 23°C
P.to di Rugiada: 12°C
Umidità: 50%
Pressione: 1024 hPa
Condizioni generali: Sereno
Visibilità: oltre 10 km
2022/05/19 17:50 LIRU 191750Z 23006KT 200V270 CAVOK 23/12 Q1024
 
LIVF - Frontone (570 m.)
Dati ricevuti: 19/05/2022 22:55
Sereno
Sereno
 Vento da calm
Vento: Calma
TEMPERATURA: 16°C
P.to di Rugiada: 4°C
Umidità: 45%
Pressione: 1025 hPa
Condizioni generali: Sereno
Visibilità: oltre 10 km
2022/05/19 20:55 LIVF 192055Z 00000KT CAVOK 16/04 Q1025
 
LIRQ - Firenze Peretola (40 m.)
Dati ricevuti: 19/05/2022 23:20
Sereno
Sereno
 Vento da direzione variabile
Vento: direzione variabile 2 km/h
TEMPERATURA: 20°C
P.to di Rugiada: 10°C
Umidità: 53%
Pressione: 1026 hPa
Condizioni generali: Sereno
Visibilità: oltre 10 km
2022/05/19 21:20 LIRQ 192120Z VRB01KT CAVOK 20/10 Q1026
 
LIBP - Pescara (10 m.)
Dati ricevuti: 19/05/2022 23:20
Sereno
Sereno
 Vento da SW
Vento: SW 6 km/h
TEMPERATURA: 12°C
P.to di Rugiada: 7°C
Umidità: 72%
Pressione: 1027 hPa
Nuvole: Sereno
Visibilità: 10 km
2022/05/19 21:20 LIBP 192120Z AUTO 23003KT 9999 NCD 12/07 Q1027
 
LIRV - Viterbo (300 m.)
Dati ricevuti: 19/05/2022 21:55
Dati non aggiornati
Sereno
Sereno
 Vento da S
Vento: S 11 km/h
TEMPERATURA: 16°C
P.to di Rugiada: 12°C
Umidità: 77%
Pressione: 1026 hPa
Condizioni generali: Sereno
Visibilità: oltre 10 km
2022/05/19 19:55 LIRV 191955Z 18006KT CAVOK 16/12 Q1026
 
LIQN - Rieti (389 m.)
Dati ricevuti: 19/05/2022 19:50
Dati non aggiornati
Sereno
Sereno
 Vento da SSW
Vento: SSW 6 km/h
TEMPERATURA: 25°C
P.to di Rugiada: 7°C
Umidità: 32%
Pressione: 1025 hPa
Condizioni generali: Sereno
Visibilità: oltre 10 km
2022/05/19 17:50 LIQN 191750Z 21003KT 170V270 CAVOK 25/07 Q1025
 
LIRG - Guidonia -RM- (88 m.)
Dati ricevuti: 19/05/2022 19:55
Dati non aggiornati
Sereno
Sereno
 Vento da SSW
Vento: SSW 15 km/h
TEMPERATURA: 24°C
P.to di Rugiada: 12°C
Umidità: 47%
Pressione: 1025 hPa
Condizioni generali: Sereno
Visibilità: oltre 10 km
2022/05/19 17:55 LIRG 191755Z 21008KT CAVOK 24/12 Q1025
 
LIRK - Terminillo -RI-(1874 m.)
Dati ricevuti: 19/05/2022 22:55

 Vento da N
Vento: N 11 km/h
TEMPERATURA: 12°C
P.to di Rugiada: 2°C
Umidità: 51%
Pressione: 1033 hPa
2022/05/19 20:55 LIRK 192055Z AUTO 01006KT //// 12/02 Q1033
 
LIPK - Forlì (27 m.)
Dati ricevuti: 19/05/2022 17:50
Dati non aggiornati
Sereno
Sereno
 Vento da E
Vento: E 17 km/h
TEMPERATURA: 24°C
P.to di Rugiada: 9°C
Umidità: 39%
Pressione: 1025 hPa
Condizioni generali: Sereno
Visibilità: oltre 10 km
2022/05/19 15:50 LIPK 191550Z 09009KT CAVOK 24/09 Q1025
 
LIRS - Grosseto (5 m.)
Dati ricevuti: 19/05/2022 22:55
Sereno
Sereno
 Vento da SSE
Vento: SSE 2 km/h
TEMPERATURA: 18°C
P.to di Rugiada: 17°C
Umidità: 94%
Pressione: 1025 hPa
Condizioni generali: Sereno
Visibilità: oltre 10 km
2022/05/19 20:55 LIRS 192055Z 16001KT CAVOK 18/17 Q1025
 
LIRP - Pisa S.Giusto (2 m.)
Dati ricevuti: 19/05/2022 23:15
Sereno
Sereno
 Vento da NE
Vento: NE 2 km/h
TEMPERATURA: 18°C
P.to di Rugiada: 15°C
Umidità: 83%
Pressione: 1026 hPa
Condizioni generali: Sereno
Visibilità: oltre 10 km
2022/05/19 21:15 LIRP 192115Z 04001KT CAVOK 18/15 Q1026 NOSIG